Time;durP1;ratioP1;P1;durP2;ratioP2;P2;SDS_P1;SDS_P2;PMS_P1;PMS_P2;Temp;Humidity;BMP_temperature;BMP_pressure;BME280_temperature;BME280_humidity;BME280_pressure;Samples;Min_cycle;Max_cycle;Signal;HPM_P1;HPM_P2
2021/07/09 00:01:25;;;;;;;5.40;5.00;;;18.00;99.90;;;;;;4996849;28;20892;-72
2021/07/09 00:03:51;;;;;;;5.67;5.00;;;18.00;99.90;;;;;;5014221;28;20410;-72
2021/07/09 00:06:19;;;;;;;4.63;4.33;;;18.00;99.90;;;;;;5013908;28;20177;-71
2021/07/09 00:08:45;;;;;;;8.27;5.63;;;18.00;99.90;;;;;;5014022;28;20201;-72
2021/07/09 00:11:11;;;;;;;5.30;4.60;;;18.00;99.90;;;;;;5013987;28;20970;-73
2021/07/09 00:13:36;;;;;;;5.83;5.27;;;18.00;99.90;;;;;;4996307;28;20431;-71
2021/07/09 00:16:02;;;;;;;5.10;4.60;;;18.00;99.90;;;;;;5004028;28;20235;-72
2021/07/09 00:18:27;;;;;;;5.10;4.57;;;18.00;99.90;;;;;;4994092;28;20195;-71
2021/07/09 00:20:53;;;;;;;4.93;4.53;;;18.00;99.90;;;;;;4994225;28;20184;-71
2021/07/09 00:23:19;;;;;;;9.50;5.37;;;18.00;99.90;;;;;;4993106;28;20735;-70
2021/07/09 00:25:44;;;;;;;4.97;4.47;;;18.00;99.90;;;;;;4992734;28;20216;-72
2021/07/09 00:28:10;;;;;;;5.47;4.57;;;18.00;99.90;;;;;;4992544;28;20285;-72
2021/07/09 00:30:36;;;;;;;5.53;5.13;;;18.00;99.90;;;;;;4992385;28;20547;-71
2021/07/09 00:33:01;;;;;;;5.60;5.00;;;18.00;99.90;;;;;;5002682;28;20210;-73
2021/07/09 00:35:26;;;;;;;4.83;4.20;;;18.00;99.90;;;;;;5001951;28;20608;-73
2021/07/09 00:37:52;;;;;;;5.40;4.87;;;18.00;99.90;;;;;;4993639;28;20177;-73
2021/07/09 00:40:18;;;;;;;6.70;4.70;;;18.00;99.90;;;;;;4993955;28;20544;-71
2021/07/09 00:42:43;;;;;;;4.70;4.30;;;18.00;99.90;;;;;;4993717;28;20187;-73
2021/07/09 00:45:10;;;;;;;4.90;4.50;;;18.00;99.90;;;;;;4993931;28;20220;-73
2021/07/09 00:47:37;;;;;;;5.30;4.80;;;18.00;99.90;;;;;;5001077;28;20187;-72
2021/07/09 00:50:04;;;;;;;5.47;4.63;;;18.00;99.90;;;;;;5013226;28;20811;-72
2021/07/09 00:52:30;;;;;;;4.87;4.47;;;18.00;99.90;;;;;;5013142;28;20435;-73
2021/07/09 00:54:56;;;;;;;6.17;5.60;;;18.00;99.90;;;;;;5004671;28;20422;-73
2021/07/09 00:57:22;;;;;;;6.50;5.17;;;18.00;99.90;;;;;;5004771;28;20512;-73
2021/07/09 00:59:47;;;;;;;6.00;4.73;;;18.00;99.90;;;;;;5013079;28;20193;-73
2021/07/09 01:02:13;;;;;;;7.17;4.73;;;18.00;99.90;;;;;;5004456;28;20176;-72
2021/07/09 01:04:38;;;;;;;5.57;5.07;;;18.00;99.90;;;;;;4993381;28;20183;-71
2021/07/09 01:07:05;;;;;;;6.90;5.27;;;18.10;99.90;;;;;;4993435;28;20161;-73
2021/07/09 01:09:31;;;;;;;5.10;4.70;;;18.10;99.90;;;;;;4993318;28;20202;-72
2021/07/09 01:11:57;;;;;;;5.27;4.77;;;18.00;99.90;;;;;;4993416;28;20930;-72
2021/07/09 01:14:23;;;;;;;4.37;4.07;;;18.10;99.90;;;;;;4993598;28;20756;-73
2021/07/09 01:16:50;;;;;;;5.37;4.87;;;18.10;99.90;;;;;;4993459;28;20448;-72
2021/07/09 01:19:20;;;;;;;5.90;4.80;;;18.10;99.90;;;;;;4980133;28;20653;-72
2021/07/09 01:21:47;;;;;;;5.23;4.63;;;18.00;99.90;;;;;;4973526;28;20412;-72
2021/07/09 01:24:13;;;;;;;5.90;5.40;;;18.00;99.90;;;;;;4973642;28;20416;-72
2021/07/09 01:26:40;;;;;;;5.33;4.70;;;18.00;99.90;;;;;;4973985;28;20917;-73
2021/07/09 01:29:06;;;;;;;5.47;4.33;;;18.00;99.90;;;;;;4973492;28;20436;-72
2021/07/09 01:31:33;;;;;;;5.77;5.07;;;18.10;99.90;;;;;;4977575;28;20446;-73
2021/07/09 01:33:59;;;;;;;5.53;4.37;;;18.00;99.90;;;;;;4992785;28;20497;-73
2021/07/09 01:36:25;;;;;;;5.23;4.83;;;18.00;99.90;;;;;;4985359;28;20520;-72
2021/07/09 01:38:51;;;;;;;4.70;4.30;;;18.00;99.90;;;;;;4974350;28;20433;-73
2021/07/09 01:41:17;;;;;;;6.50;4.17;;;18.00;99.90;;;;;;4972633;28;20165;-73
2021/07/09 01:43:44;;;;;;;5.00;4.57;;;18.00;99.90;;;;;;4973420;28;20408;-73
2021/07/09 01:46:10;;;;;;;4.87;4.57;;;18.00;99.90;;;;;;4973356;28;20410;-70
2021/07/09 01:48:35;;;;;;;4.70;4.30;;;18.00;99.90;;;;;;4982473;28;21007;-73
2021/07/09 01:51:01;;;;;;;4.80;4.37;;;18.00;99.90;;;;;;5003838;28;20175;-73
2021/07/09 01:53:26;;;;;;;4.37;4.07;;;18.00;99.90;;;;;;5011974;28;20186;-73
2021/07/09 01:55:52;;;;;;;5.13;4.60;;;18.00;99.90;;;;;;5012093;28;20673;-73
2021/07/09 01:58:17;;;;;;;4.47;4.07;;;18.00;99.90;;;;;;5011730;28;20197;-73
2021/07/09 02:00:43;;;;;;;4.80;3.63;;;18.00;99.90;;;;;;5011341;28;20164;-72
2021/07/09 02:03:09;;;;;;;4.80;4.40;;;18.00;99.90;;;;;;5011912;28;20171;-72
2021/07/09 02:05:35;;;;;;;4.40;4.00;;;18.00;99.90;;;;;;5011990;28;20174;-73
2021/07/09 02:08:01;;;;;;;5.60;5.13;;;18.00;99.90;;;;;;5011878;28;20466;-72
2021/07/09 02:10:30;;;;;;;5.20;4.67;;;17.90;99.90;;;;;;5011893;28;20172;-72
2021/07/09 02:12:57;;;;;;;7.67;4.90;;;17.90;99.90;;;;;;5011783;28;20418;-73
2021/07/09 02:15:26;;;;;;;7.60;5.50;;;17.90;99.90;;;;;;5012055;28;20404;-71
2021/07/09 02:17:52;;;;;;;4.77;4.30;;;17.90;99.90;;;;;;5011970;28;20401;-72
2021/07/09 02:20:20;;;;;;;5.07;4.57;;;17.90;99.90;;;;;;5012017;28;20432;-72
2021/07/09 02:22:46;;;;;;;4.60;4.20;;;17.90;99.90;;;;;;5011876;28;20406;-73
2021/07/09 02:25:14;;;;;;;4.33;4.03;;;17.90;99.90;;;;;;5008971;28;20873;-73
2021/07/09 02:27:41;;;;;;;6.30;4.10;;;17.90;99.90;;;;;;5003534;28;20747;-73
2021/07/09 02:30:12;;;;;;;4.80;4.40;;;17.90;99.90;;;;;;5005710;28;20424;-72
2021/07/09 02:32:39;;;;;;;10.00;4.80;;;17.90;99.90;;;;;;4992583;28;20429;-73
2021/07/09 02:35:06;;;;;;;4.47;4.07;;;17.90;99.90;;;;;;4990624;28;20482;-73
2021/07/09 02:37:32;;;;;;;4.93;4.53;;;17.90;99.90;;;;;;4990802;28;20527;-72
2021/07/09 02:39:59;;;;;;;6.90;4.90;;;17.90;99.90;;;;;;4990276;28;20422;-72
2021/07/09 02:42:25;;;;;;;7.97;4.37;;;17.90;99.90;;;;;;4990229;28;20177;-72
2021/07/09 02:44:50;;;;;;;4.60;4.00;;;17.90;99.90;;;;;;4990365;28;20446;-72
2021/07/09 02:47:16;;;;;;;4.97;4.47;;;17.90;99.90;;;;;;4990656;28;20438;-72
2021/07/09 02:49:42;;;;;;;4.57;4.17;;;17.90;99.90;;;;;;4990910;28;20202;-73
2021/07/09 02:52:09;;;;;;;6.70;4.40;;;17.90;99.90;;;;;;4991986;28;20173;-72
2021/07/09 02:54:34;;;;;;;3.97;3.73;;;17.90;99.90;;;;;;4992778;28;20169;-72
2021/07/09 02:57:00;;;;;;;5.00;4.60;;;17.90;99.90;;;;;;4992513;28;21046;-71
2021/07/09 02:59:25;;;;;;;4.97;4.57;;;17.90;99.90;;;;;;4992116;28;20211;-72
2021/07/09 03:01:51;;;;;;;5.57;5.07;;;17.80;99.90;;;;;;4992007;28;20169;-71
2021/07/09 03:04:16;;;;;;;4.90;4.50;;;17.80;99.90;;;;;;4991969;28;20210;-71
2021/07/09 03:06:42;;;;;;;6.80;4.70;;;17.80;99.90;;;;;;4992019;28;20191;-70
2021/07/09 03:09:09;;;;;;;5.47;4.50;;;17.80;99.90;;;;;;4991769;28;20757;-71
2021/07/09 03:11:36;;;;;;;5.73;5.13;;;17.80;99.90;;;;;;4994458;28;20253;-72
2021/07/09 03:14:03;;;;;;;4.43;4.13;;;17.80;99.90;;;;;;4994345;28;20433;-72
2021/07/09 03:16:29;;;;;;;5.20;4.70;;;17.80;99.90;;;;;;4995531;28;20491;-71
2021/07/09 03:18:54;;;;;;;6.50;3.83;;;17.90;99.90;;;;;;4995370;28;20881;-72
2021/07/09 03:21:20;;;;;;;6.53;4.10;;;17.90;99.90;;;;;;4995508;28;20180;-72
2021/07/09 03:23:45;;;;;;;5.50;4.33;;;17.90;99.90;;;;;;4995352;28;20588;-71
2021/07/09 03:26:11;;;;;;;4.60;4.27;;;17.90;99.90;;;;;;4995529;28;20264;-72
2021/07/09 03:28:36;;;;;;;4.83;4.40;;;17.90;99.90;;;;;;4995159;28;20227;-71
2021/07/09 03:31:02;;;;;;;4.93;4.53;;;17.90;99.90;;;;;;4995135;28;20540;-71
2021/07/09 03:33:28;;;;;;;5.70;4.57;;;17.90;99.90;;;;;;4995174;28;20172;-71
2021/07/09 03:35:53;;;;;;;4.60;4.20;;;17.90;99.90;;;;;;4994973;28;20201;-71
2021/07/09 03:38:20;;;;;;;4.90;4.50;;;17.80;99.90;;;;;;4995223;28;20192;-72
2021/07/09 03:40:46;;;;;;;4.77;4.30;;;17.80;99.90;;;;;;4995696;28;20199;-72
2021/07/09 03:43:11;;;;;;;5.73;4.57;;;17.80;99.90;;;;;;4995473;28;20486;-71
2021/07/09 03:45:37;;;;;;;6.20;4.10;;;17.80;99.90;;;;;;4996038;28;20471;-71
2021/07/09 03:48:04;;;;;;;5.30;4.80;;;17.80;99.90;;;;;;4995237;28;20183;-72
2021/07/09 03:50:29;;;;;;;4.97;4.43;;;17.80;99.90;;;;;;4995648;28;20172;-70
2021/07/09 03:52:55;;;;;;;5.90;5.33;;;17.80;99.90;;;;;;4994889;28;20431;-74
2021/07/09 03:55:20;;;;;;;7.60;5.20;;;17.80;99.90;;;;;;4995125;28;20199;-71
2021/07/09 03:57:46;;;;;;;5.20;4.90;;;17.90;99.90;;;;;;4994718;28;20289;-71
2021/07/09 04:00:14;;;;;;;5.00;4.60;;;17.90;99.90;;;;;;4994708;28;20210;-71
2021/07/09 04:02:40;;;;;;;5.70;5.20;;;17.90;99.90;;;;;;4995186;28;20259;-72
2021/07/09 04:05:06;;;;;;;7.13;5.10;;;17.90;99.90;;;;;;4994663;28;20422;-72
2021/07/09 04:07:32;;;;;;;6.87;6.37;;;17.80;99.90;;;;;;4995372;28;20416;-71
2021/07/09 04:09:57;;;;;;;7.00;6.37;;;17.80;99.90;;;;;;5002484;28;20435;-73
2021/07/09 04:12:23;;;;;;;6.20;5.70;;;17.80;99.90;;;;;;5004624;28;20239;-73
2021/07/09 04:14:48;;;;;;;8.30;5.80;;;17.80;99.90;;;;;;4980864;28;20184;-73
2021/07/09 04:17:13;;;;;;;7.97;7.03;;;17.80;99.90;;;;;;4999081;28;20259;-73
2021/07/09 04:19:39;;;;;;;7.60;6.93;;;17.80;99.90;;;;;;5000435;28;20222;-73
2021/07/09 04:22:06;;;;;;;7.80;7.07;;;17.70;99.90;;;;;;5001303;28;20246;-75
2021/07/09 04:24:31;;;;;;;6.80;6.30;;;17.70;99.90;;;;;;5002232;28;20404;-73
2021/07/09 04:26:57;;;;;;;8.03;7.17;;;17.70;99.90;;;;;;5000401;28;20505;-73
2021/07/09 04:29:22;;;;;;;6.87;6.37;;;17.70;99.90;;;;;;5000326;28;20187;-73
2021/07/09 04:31:47;;;;;;;11.23;7.70;;;17.70;99.90;;;;;;5001603;28;20638;-73
2021/07/09 04:34:13;;;;;;;7.83;7.03;;;17.70;99.90;;;;;;5002612;28;20615;-73
2021/07/09 04:36:38;;;;;;;7.60;6.90;;;17.70;99.90;;;;;;5007455;28;20203;-71
2021/07/09 04:39:04;;;;;;;9.43;8.50;;;17.70;99.90;;;;;;4992128;28;20195;-74
2021/07/09 04:41:30;;;;;;;9.67;8.33;;;17.70;99.90;;;;;;5007608;28;20208;-74
2021/07/09 04:43:55;;;;;;;8.07;7.37;;;17.60;99.90;;;;;;5004736;28;20249;-73
2021/07/09 04:46:21;;;;;;;8.33;7.53;;;17.60;99.90;;;;;;4985955;28;20928;-72
2021/07/09 04:48:46;;;;;;;9.97;8.00;;;17.60;99.90;;;;;;5003328;28;20223;-73
2021/07/09 04:51:12;;;;;;;10.30;9.30;;;17.60;99.90;;;;;;5002985;28;20186;-74
2021/07/09 04:53:37;;;;;;;13.57;9.17;;;17.60;99.90;;;;;;5004410;28;20172;-73
2021/07/09 04:56:03;;;;;;;10.60;9.63;;;17.60;99.90;;;;;;5008588;28;20199;-73
2021/07/09 04:58:29;;;;;;;9.70;8.70;;;17.60;99.90;;;;;;5008081;28;20193;-72
2021/07/09 05:00:54;;;;;;;14.40;10.10;;;17.60;99.90;;;;;;5006995;28;20171;-72
2021/07/09 05:03:19;;;;;;;12.40;10.47;;;17.60;99.90;;;;;;4987217;28;20187;-71
2021/07/09 05:05:45;;;;;;;12.20;11.20;;;17.60;99.90;;;;;;5002323;28;20193;-72
2021/07/09 05:08:11;;;;;;;13.03;11.70;;;17.60;99.90;;;;;;5003045;28;20191;-71
2021/07/09 05:10:36;;;;;;;12.50;11.27;;;17.60;99.90;;;;;;5001693;28;20178;-72
2021/07/09 05:13:06;;;;;;;12.10;10.87;;;17.50;99.90;;;;;;4999834;28;20595;-72
2021/07/09 05:15:33;;;;;;;12.70;11.50;;;17.50;99.90;;;;;;4999849;28;20179;-70
2021/07/09 05:17:59;;;;;;;12.50;11.20;;;17.50;99.90;;;;;;5000733;28;20406;-72
2021/07/09 05:20:24;;;;;;;13.17;11.97;;;17.50;99.90;;;;;;4982149;28;20405;-73
2021/07/09 05:22:50;;;;;;;12.90;10.73;;;17.50;99.90;;;;;;5001408;28;20182;-71
2021/07/09 05:25:16;;;;;;;12.83;11.73;;;17.60;99.90;;;;;;4999203;28;20629;-72
2021/07/09 05:27:41;;;;;;;15.77;11.63;;;17.60;99.90;;;;;;5002309;28;20455;-72
2021/07/09 05:30:08;;;;;;;12.00;10.90;;;17.60;99.90;;;;;;5005368;28;20175;-72
2021/07/09 05:32:34;;;;;;;13.80;12.63;;;17.60;99.90;;;;;;5009309;28;20191;-72
2021/07/09 05:34:59;;;;;;;11.57;10.47;;;17.60;99.90;;;;;;5007492;28;20438;-72
2021/07/09 05:37:26;;;;;;;11.50;10.50;;;17.60;99.90;;;;;;5007578;28;20463;-71
2021/07/09 05:39:51;;;;;;;11.87;10.77;;;17.60;99.90;;;;;;5005395;28;20295;-72
2021/07/09 05:42:17;;;;;;;11.00;10.10;;;17.60;99.90;;;;;;5006374;28;20418;-71
2021/07/09 05:44:43;;;;;;;11.80;10.70;;;17.60;99.90;;;;;;5007378;28;20202;-70
2021/07/09 05:47:11;;;;;;;11.87;10.50;;;17.70;99.90;;;;;;5008670;28;20433;-73
2021/07/09 05:49:36;;;;;;;11.63;10.43;;;17.60;99.90;;;;;;5008719;28;20816;-72
2021/07/09 05:52:07;;;;;;;12.80;11.53;;;17.70;99.90;;;;;;5008072;28;20409;-73
2021/07/09 05:54:33;;;;;;;11.00;10.00;;;17.70;99.90;;;;;;4989867;28;20251;-71
2021/07/09 05:56:59;;;;;;;11.97;10.80;;;17.80;99.90;;;;;;5006143;28;20486;-72
2021/07/09 05:59:24;;;;;;;11.67;10.57;;;17.80;99.90;;;;;;5003317;28;20279;-74
2021/07/09 06:01:50;;;;;;;13.10;12.00;;;17.90;99.90;;;;;;5003369;28;20198;-72
2021/07/09 06:04:17;;;;;;;13.70;12.60;;;17.90;99.90;;;;;;5004918;28;20235;-71
2021/07/09 06:06:43;;;;;;;13.03;11.83;;;18.00;99.90;;;;;;5004631;28;20542;-70
2021/07/09 06:09:08;;;;;;;15.70;14.40;;;18.00;99.90;;;;;;5003680;28;20477;-73
2021/07/09 06:11:34;;;;;;;12.77;11.77;;;18.00;99.90;;;;;;4986750;28;20636;-73
2021/07/09 06:14:00;;;;;;;14.83;13.43;;;18.00;99.90;;;;;;5005408;28;20177;-72
2021/07/09 06:16:25;;;;;;;13.97;12.87;;;18.10;99.90;;;;;;5003782;28;20199;-73
2021/07/09 06:18:51;;;;;;;14.13;12.13;;;18.10;99.90;;;;;;5006114;28;20435;-74
2021/07/09 06:21:17;;;;;;;13.70;12.50;;;18.10;99.90;;;;;;4991220;28;20168;-74
2021/07/09 06:23:43;;;;;;;12.80;11.70;;;18.10;99.90;;;;;;5005113;28;20165;-73
2021/07/09 06:26:09;;;;;;;12.70;11.60;;;18.10;99.90;;;;;;5004827;28;20425;-74
2021/07/09 06:28:35;;;;;;;13.77;12.17;;;18.10;99.90;;;;;;5004838;28;20196;-73
2021/07/09 06:31:01;;;;;;;13.13;12.03;;;18.10;99.90;;;;;;5005861;28;20474;-73
2021/07/09 06:33:27;;;;;;;13.63;12.53;;;18.10;99.90;;;;;;5005090;28;20489;-74
2021/07/09 06:35:52;;;;;;;14.60;13.10;;;18.10;99.90;;;;;;5007329;28;20468;-72
2021/07/09 06:38:18;;;;;;;13.27;12.17;;;18.10;99.90;;;;;;5008444;28;20243;-73
2021/07/09 06:40:44;;;;;;;14.63;13.13;;;18.10;99.90;;;;;;5008187;28;20172;-74
2021/07/09 06:43:11;;;;;;;14.07;12.20;;;18.10;99.90;;;;;;4990067;28;20177;-73
2021/07/09 06:45:37;;;;;;;14.03;12.63;;;18.10;99.90;;;;;;5008064;28;20192;-74
2021/07/09 06:48:03;;;;;;;14.87;13.43;;;18.20;99.90;;;;;;4991607;28;20450;-73
2021/07/09 06:50:29;;;;;;;14.17;12.83;;;18.20;99.90;;;;;;5005889;28;20951;-74
2021/07/09 06:52:54;;;;;;;14.67;13.47;;;18.20;99.90;;;;;;5005003;28;20414;-73
2021/07/09 06:55:20;;;;;;;13.33;12.07;;;18.20;99.90;;;;;;5004401;28;20171;-74
2021/07/09 06:57:47;;;;;;;13.90;12.70;;;18.20;99.90;;;;;;5005522;28;20205;-73
2021/07/09 07:00:14;;;;;;;14.20;12.90;;;18.20;99.90;;;;;;5007233;28;20913;-73
2021/07/09 07:02:40;;;;;;;14.77;13.30;;;18.20;99.90;;;;;;5005481;28;20446;-74
2021/07/09 07:05:06;;;;;;;14.80;13.40;;;18.30;99.90;;;;;;5003786;28;20412;-72
2021/07/09 07:07:31;;;;;;;14.93;13.53;;;18.30;99.90;;;;;;5002522;28;20177;-72
2021/07/09 07:09:57;;;;;;;15.93;14.47;;;18.30;99.90;;;;;;5003473;28;20979;-72
2021/07/09 07:12:22;;;;;;;15.30;13.97;;;18.30;99.90;;;;;;5003540;28;20183;-73
2021/07/09 07:14:48;;;;;;;16.30;14.90;;;18.30;99.90;;;;;;5005866;28;20176;-73
2021/07/09 07:17:16;;;;;;;16.07;14.47;;;18.30;99.90;;;;;;5006581;28;20215;-72
2021/07/09 07:19:41;;;;;;;15.53;13.90;;;18.40;99.90;;;;;;5008470;28;20196;-73
2021/07/09 07:22:06;;;;;;;16.30;14.70;;;18.30;99.90;;;;;;5006440;28;20416;-73
2021/07/09 07:24:32;;;;;;;15.80;14.40;;;18.30;99.90;;;;;;5004792;28;20175;-73
2021/07/09 07:26:58;;;;;;;18.40;16.80;;;18.30;99.90;;;;;;5005111;28;20671;-73
2021/07/09 07:29:24;;;;;;;16.93;15.43;;;18.40;99.90;;;;;;5004504;28;20330;-73
2021/07/09 07:31:50;;;;;;;17.60;15.80;;;18.40;99.90;;;;;;5004444;28;20408;-73
2021/07/09 07:34:15;;;;;;;14.13;12.87;;;18.40;99.90;;;;;;5004534;28;20299;-74
2021/07/09 07:36:41;;;;;;;15.37;13.90;;;18.40;99.90;;;;;;5003327;28;20471;-74
2021/07/09 07:39:06;;;;;;;14.70;13.30;;;18.40;99.90;;;;;;5004763;28;20235;-73
2021/07/09 07:41:32;;;;;;;15.40;14.10;;;18.40;99.90;;;;;;5004043;28;20172;-72
2021/07/09 07:43:57;;;;;;;13.97;12.67;;;18.50;99.90;;;;;;5004361;28;20225;-74
2021/07/09 07:46:23;;;;;;;15.17;13.77;;;18.50;99.90;;;;;;5003179;28;20705;-73
2021/07/09 07:48:48;;;;;;;14.27;13.10;;;18.50;99.90;;;;;;5003205;28;20215;-72
2021/07/09 07:51:14;;;;;;;14.60;13.17;;;18.50;99.90;;;;;;4999685;28;20308;-72
2021/07/09 07:53:40;;;;;;;14.30;13.07;;;18.60;99.90;;;;;;4997535;28;20530;-73
2021/07/09 07:56:07;;;;;;;15.77;14.37;;;18.70;99.90;;;;;;4997584;28;20197;-73
2021/07/09 07:58:33;;;;;;;16.00;14.43;;;18.70;99.90;;;;;;4995780;28;20198;-75
2021/07/09 08:00:58;;;;;;;16.40;14.90;;;18.70;99.90;;;;;;4979848;28;20410;-73
2021/07/09 08:03:24;;;;;;;15.37;14.07;;;18.80;99.90;;;;;;4997070;28;20903;-72
2021/07/09 08:05:50;;;;;;;15.50;14.10;;;18.90;99.90;;;;;;4996101;28;20531;-73
2021/07/09 08:08:16;;;;;;;16.23;14.67;;;18.90;99.90;;;;;;4986978;28;20968;-71
2021/07/09 08:10:41;;;;;;;17.30;15.90;;;19.00;99.90;;;;;;4991041;28;20505;-72
2021/07/09 08:13:07;;;;;;;15.73;14.43;;;19.00;99.90;;;;;;4975555;28;20177;-72
2021/07/09 08:15:32;;;;;;;16.40;14.80;;;19.00;99.90;;;;;;4976459;28;20181;-73
2021/07/09 08:17:58;;;;;;;15.10;13.80;;;19.00;99.90;;;;;;4975178;28;20177;-72
2021/07/09 08:20:24;;;;;;;15.60;14.30;;;19.10;99.90;;;;;;4975131;28;20173;-73
2021/07/09 08:22:49;;;;;;;15.33;14.13;;;19.20;99.90;;;;;;4977519;28;20309;-71
2021/07/09 08:25:16;;;;;;;14.07;12.97;;;19.20;99.90;;;;;;4977436;28;20167;-72
2021/07/09 08:27:42;;;;;;;12.83;11.83;;;19.20;99.90;;;;;;4986925;28;20218;-73
2021/07/09 08:30:09;;;;;;;14.20;12.80;;;19.30;99.90;;;;;;4994457;28;20412;-72
2021/07/09 08:32:35;;;;;;;11.73;10.83;;;19.40;99.90;;;;;;4997569;28;20439;-72
2021/07/09 08:35:02;;;;;;;12.23;11.23;;;19.30;99.90;;;;;;4994433;28;20418;-73
2021/07/09 08:37:28;;;;;;;12.33;11.33;;;19.30;99.90;;;;;;4994916;28;21046;-73
2021/07/09 08:39:53;;;;;;;11.90;11.10;;;19.30;99.90;;;;;;4994647;28;20509;-73
2021/07/09 08:42:19;;;;;;;12.57;11.27;;;19.30;99.90;;;;;;4994876;28;20205;-73
2021/07/09 08:44:45;;;;;;;12.23;11.13;;;19.30;99.90;;;;;;4994839;28;20414;-73
2021/07/09 08:47:12;;;;;;;13.53;10.77;;;19.20;99.90;;;;;;4995277;28;20179;-72
2021/07/09 08:49:37;;;;;;;11.40;10.40;;;19.30;99.90;;;;;;4994662;28;20206;-73
2021/07/09 08:52:03;;;;;;;12.27;11.17;;;19.30;99.90;;;;;;4995085;28;20870;-73
2021/07/09 08:54:30;;;;;;;11.40;10.00;;;19.30;99.90;;;;;;4994795;28;20182;-72
2021/07/09 08:56:55;;;;;;;10.87;9.93;;;19.40;99.90;;;;;;4993757;28;20311;-74
2021/07/09 08:59:21;;;;;;;12.13;11.13;;;19.30;99.90;;;;;;4993988;28;20470;-72
2021/07/09 09:01:48;;;;;;;12.00;11.00;;;19.40;99.90;;;;;;4994682;28;20264;-72
2021/07/09 09:04:14;;;;;;;11.73;10.73;;;19.40;99.90;;;;;;4993567;28;20266;-73
2021/07/09 09:06:40;;;;;;;10.70;9.70;;;19.40;99.90;;;;;;4993501;28;20429;-75
2021/07/09 09:09:16;;;;;;;11.73;10.53;;;19.50;99.90;;;;;;4992946;28;20189;-73
2021/07/09 09:11:59;;;;;;;11.03;9.90;;;19.60;99.90;;;;;;4993389;28;20186;-73
2021/07/09 09:14:25;;;;;;;10.97;10.10;;;19.60;99.90;;;;;;4994272;28;21070;-73
2021/07/09 09:16:50;;;;;;;13.47;12.03;;;19.60;99.90;;;;;;5000817;28;20497;-72
2021/07/09 09:19:20;;;;;;;11.67;10.70;;;19.50;99.90;;;;;;4993879;28;20233;-72
2021/07/09 09:21:45;;;;;;;10.93;10.03;;;19.50;99.90;;;;;;4993742;28;20166;-73
2021/07/09 09:24:11;;;;;;;10.93;10.03;;;19.60;99.90;;;;;;4993596;28;20939;-72
2021/07/09 09:26:50;;;;;;;12.13;10.97;;;19.60;99.90;;;;;;4994200;28;20201;-73
2021/07/09 09:29:39;;;;;;;13.30;10.83;;;19.50;99.90;;;;;;4994108;28;20566;-73
2021/07/09 09:32:06;;;;;;;10.07;9.07;;;19.60;99.90;;;;;;4994306;28;20481;-73
2021/07/09 09:34:40;;;;;;;9.47;8.73;;;19.70;99.90;;;;;;4993172;28;20514;-73
2021/07/09 09:37:07;;;;;;;8.90;8.20;;;19.60;99.90;;;;;;4993348;28;20474;-73
2021/07/09 09:39:34;;;;;;;10.00;9.20;;;19.60;99.90;;;;;;4993473;28;20454;-73
2021/07/09 09:42:06;;;;;;;9.53;8.60;;;19.70;99.90;;;;;;4992911;28;20426;-73
2021/07/09 09:44:31;;;;;;;9.37;8.33;;;19.80;99.90;;;;;;4975795;28;20451;-73
2021/07/09 09:47:11;;;;;;;7.80;7.17;;;19.80;99.90;;;;;;4992881;28;20410;-72
2021/07/09 09:49:37;;;;;;;9.30;8.50;;;20.00;99.90;;;;;;4992854;28;20207;-73
2021/07/09 09:52:02;;;;;;;8.73;7.93;;;20.00;99.90;;;;;;4992859;28;20468;-74
2021/07/09 09:54:34;;;;;;;9.80;8.20;;;20.00;99.90;;;;;;4992819;28;20179;-72
2021/07/09 09:57:00;;;;;;;8.30;7.50;;;20.10;99.90;;;;;;4992745;28;20194;-72
2021/07/09 09:59:27;;;;;;;11.33;9.07;;;20.30;99.90;;;;;;4992586;28;20439;-73
2021/07/09 10:02:05;;;;;;;8.00;7.40;;;20.40;99.90;;;;;;4992583;28;20172;-72
2021/07/09 10:04:32;;;;;;;7.83;7.23;;;20.30;99.90;;;;;;4992545;28;20495;-72
2021/07/09 10:06:58;;;;;;;7.47;6.97;;;20.40;99.90;;;;;;4992382;28;20413;-73
2021/07/09 10:09:25;;;;;;;7.17;6.67;;;20.50;99.90;;;;;;4992340;28;20496;-73
2021/07/09 10:11:50;;;;;;;8.27;7.03;;;20.50;99.90;;;;;;4992310;28;20465;-72
2021/07/09 10:14:18;;;;;;;9.47;7.93;;;20.40;99.90;;;;;;4972418;28;20965;-72
2021/07/09 10:16:46;;;;;;;8.57;6.93;;;20.40;99.90;;;;;;5011624;28;20656;-71
2021/07/09 10:19:18;;;;;;;8.50;7.80;;;20.30;99.90;;;;;;5002671;28;20558;-70
2021/07/09 10:21:44;;;;;;;9.70;8.80;;;20.40;99.90;;;;;;4996156;28;20821;-71
2021/07/09 10:24:13;;;;;;;9.40;8.50;;;20.30;99.90;;;;;;4992180;28;20443;-71
2021/07/09 10:26:43;;;;;;;10.63;9.23;;;20.30;99.90;;;;;;4987559;28;20180;-70
2021/07/09 10:29:13;;;;;;;9.60;8.90;;;20.20;99.90;;;;;;4985813;28;20972;-70
2021/07/09 10:31:41;;;;;;;10.13;9.23;;;20.10;99.90;;;;;;4985473;28;21324;-70
2021/07/09 10:34:26;;;;;;;10.80;9.70;;;20.10;99.90;;;;;;4990402;28;20458;-70
2021/07/09 10:36:58;;;;;;;13.27;11.70;;;20.10;99.90;;;;;;4982852;28;21766;-71
2021/07/09 10:39:42;;;;;;;10.50;9.60;;;20.10;99.90;;;;;;4969955;28;20440;-70
2021/07/09 10:42:39;;;;;;;11.80;10.67;;;20.00;99.90;;;;;;4976790;28;20817;-70
2021/07/09 10:45:13;;;;;;;11.77;10.63;;;20.00;99.90;;;;;;4972424;28;20455;-72
2021/07/09 10:47:42;;;;;;;10.50;9.50;;;19.90;99.90;;;;;;4973959;28;20890;-77
2021/07/09 10:50:32;;;;;;;11.83;10.70;;;19.90;99.90;;;;;;4972950;28;20908;-73
2021/07/09 10:52:59;;;;;;;11.97;10.87;;;20.00;99.90;;;;;;4962542;28;20513;-72
2021/07/09 10:55:25;;;;;;;12.83;11.67;;;20.10;99.90;;;;;;4992128;28;20409;-71
2021/07/09 10:58:26;;;;;;;11.57;10.37;;;20.10;99.90;;;;;;5003017;28;20469;-72
2021/07/09 11:01:10;;;;;;;11.97;9.97;;;20.00;99.90;;;;;;4994024;28;20172;-71
2021/07/09 11:03:39;;;;;;;13.10;11.97;;;20.00;99.90;;;;;;4974578;28;20441;-73
2021/07/09 11:06:22;;;;;;;13.13;11.07;;;20.00;99.90;;;;;;4974746;28;20467;-71
2021/07/09 11:09:08;;;;;;;12.87;11.77;;;20.00;99.90;;;;;;4991767;28;20463;-72
2021/07/09 11:11:48;;;;;;;13.57;12.00;;;20.00;99.90;;;;;;4992202;28;20433;-71
2021/07/09 11:14:16;;;;;;;13.37;12.17;;;19.90;99.90;;;;;;4998830;28;20936;-73
2021/07/09 11:16:43;;;;;;;12.87;11.47;;;19.80;99.90;;;;;;5001087;28;20455;-70
2021/07/09 11:19:19;;;;;;;15.00;13.43;;;19.80;99.90;;;;;;4996847;28;20526;-73
2021/07/09 11:21:48;;;;;;;16.50;14.27;;;19.80;99.90;;;;;;4999401;28;20408;-72
2021/07/09 11:24:17;;;;;;;16.07;13.90;;;19.70;99.90;;;;;;4996742;28;20429;-73
2021/07/09 11:26:45;;;;;;;19.33;16.13;;;19.60;99.90;;;;;;4995536;28;20496;-74
2021/07/09 11:29:27;;;;;;;18.57;16.30;;;19.60;99.90;;;;;;4991865;28;20510;-73
2021/07/09 11:31:57;;;;;;;18.97;16.00;;;19.50;99.90;;;;;;4995221;28;20533;-71
2021/07/09 11:34:25;;;;;;;17.47;15.63;;;19.50;99.90;;;;;;5004978;28;20430;-74
2021/07/09 11:37:07;;;;;;;18.70;16.80;;;19.40;99.90;;;;;;5003712;28;20452;-74
2021/07/09 11:39:35;;;;;;;21.20;17.57;;;19.40;99.90;;;;;;5000496;28;20428;-74
2021/07/09 11:42:14;;;;;;;21.60;18.27;;;19.40;99.90;;;;;;5000715;28;20413;-74
2021/07/09 11:44:52;;;;;;;26.83;16.57;;;19.40;99.90;;;;;;4996581;28;20408;-73
2021/07/09 11:47:31;;;;;;;21.73;18.37;;;19.40;99.90;;;;;;4998092;28;20424;-72
2021/07/09 11:50:19;;;;;;;18.67;16.43;;;19.50;99.90;;;;;;5000881;28;20514;-74
2021/07/09 11:52:49;;;;;;;23.10;16.90;;;19.50;99.90;;;;;;4997050;28;20440;-74
2021/07/09 11:55:18;;;;;;;19.80;17.60;;;19.50;99.90;;;;;;5003275;28;20425;-73
2021/07/09 11:57:45;;;;;;;20.70;17.47;;;19.60;99.90;;;;;;4994617;28;20471;-72
2021/07/09 12:00:13;;;;;;;23.93;17.70;;;19.70;99.90;;;;;;4996227;28;20422;-73
2021/07/09 12:02:40;;;;;;;22.30;18.20;;;19.70;99.90;;;;;;4992960;28;20421;-74
2021/07/09 12:05:08;;;;;;;20.70;18.47;;;19.70;99.90;;;;;;4995302;28;20544;-73
2021/07/09 12:07:34;;;;;;;22.20;17.73;;;19.90;99.90;;;;;;4995869;28;20449;-73
2021/07/09 12:10:17;;;;;;;22.50;17.07;;;20.00;99.90;;;;;;4997342;28;20859;-73
2021/07/09 12:12:54;;;;;;;19.00;16.93;;;20.10;99.90;;;;;;4998928;28;20420;-72
2021/07/09 12:15:27;;;;;;;22.43;18.17;;;20.20;99.90;;;;;;4998758;28;20412;-73
2021/07/09 12:17:56;;;;;;;22.47;18.73;;;20.10;99.90;;;;;;5016701;28;20839;-75
2021/07/09 12:20:24;;;;;;;18.60;16.63;;;20.10;99.90;;;;;;5000260;28;20398;-74
2021/07/09 12:22:56;;;;;;;21.33;17.93;;;20.00;99.90;;;;;;4997728;28;20401;-75
2021/07/09 12:25:32;;;;;;;24.57;18.57;;;20.00;99.90;;;;;;5001406;28;20404;-72
2021/07/09 12:28:04;;;;;;;21.83;17.40;;;20.10;99.90;;;;;;5009011;28;20416;-73
2021/07/09 12:30:33;;;;;;;20.70;16.87;;;20.20;99.90;;;;;;5012899;28;20420;-73
2021/07/09 12:33:02;;;;;;;25.73;18.30;;;20.20;99.90;;;;;;4998950;28;20425;-71
2021/07/09 12:35:30;;;;;;;25.50;18.47;;;20.30;99.90;;;;;;5007112;28;20441;-73
2021/07/09 12:37:57;;;;;;;22.30;18.33;;;20.40;99.90;;;;;;5005235;28;20467;-74